Time;durP1;ratioP1;P1;durP2;ratioP2;P2;SDS_P1;SDS_P2;PMS_P1;PMS_P2;Temp;Humidity;BMP_temperature;BMP_pressure;BME280_temperature;BME280_humidity;BME280_pressure;Samples;Min_cycle;Max_cycle;Signal;HPM_P1;HPM_P2
2023/03/08 00:01:26;;;;;;;23.05;16.67;;;;;;;0.72;100.00;99983.81;5050655;28;20061;-40
2023/03/08 00:03:56;;;;;;;23.77;16.92;;;;;;;0.62;100.00;99970.94;5053647;28;20469;-40
2023/03/08 00:06:22;;;;;;;23.23;17.35;;;;;;;0.67;100.00;99992.75;5053739;28;20029;-40
2023/03/08 00:08:48;;;;;;;23.65;17.80;;;;;;;0.67;100.00;99981.88;5052375;28;20103;-39
2023/03/08 00:11:14;;;;;;;23.60;17.48;;;;;;;0.68;100.00;99969.91;5053449;28;20109;-39
2023/03/08 00:13:40;;;;;;;23.60;17.65;;;;;;;0.66;100.00;99974.81;5053296;28;20029;-40
2023/03/08 00:16:09;;;;;;;25.40;18.38;;;;;;;0.66;100.00;99966.63;5053363;28;20021;-39
2023/03/08 00:18:35;;;;;;;24.90;17.98;;;;;;;0.66;100.00;99966.63;5035324;28;20466;-39
2023/03/08 00:21:03;;;;;;;25.20;17.88;;;;;;;0.67;100.00;99973.69;5053259;28;20117;-39
2023/03/08 00:23:28;;;;;;;25.33;17.77;;;;;;;0.67;100.00;99972.88;5053230;28;20398;-38
2023/03/08 00:25:54;;;;;;;25.88;18.90;;;;;;;0.64;100.00;99968.78;5053176;28;20576;-39
2023/03/08 00:28:19;;;;;;;24.65;17.95;;;;;;;0.66;100.00;99974.81;5053126;28;20499;-38
2023/03/08 00:30:53;;;;;;;25.05;18.60;;;;;;;0.65;100.00;99964.16;5053045;28;20456;-39
2023/03/08 00:33:18;;;;;;;26.45;18.98;;;;;;;0.62;100.00;99965.50;5034971;28;20417;-39
2023/03/08 00:35:43;;;;;;;27.42;19.08;;;;;;;0.62;100.00;99977.19;5052893;28;20035;-39
2023/03/08 00:38:09;;;;;;;25.50;19.42;;;;;;;0.61;100.00;99981.00;5052861;28;20063;-38
2023/03/08 00:40:34;;;;;;;26.13;19.52;;;;;;;0.60;100.00;99962.22;5052959;28;20037;-39
2023/03/08 00:42:59;;;;;;;27.55;20.55;;;;;;;0.57;100.00;99952.69;5052806;28;20033;-38
2023/03/08 00:45:24;;;;;;;26.23;19.65;;;;;;;0.61;100.00;99970.13;5052650;28;20029;-39
2023/03/08 00:47:50;;;;;;;25.90;19.20;;;;;;;0.61;100.00;99966.59;5052675;28;20375;-39
2023/03/08 00:50:15;;;;;;;27.63;19.92;;;;;;;0.63;100.00;99967.16;5052803;28;20033;-39
2023/03/08 00:52:40;;;;;;;26.55;20.38;;;;;;;0.65;100.00;99967.72;5052566;28;20496;-40
2023/03/08 00:55:06;;;;;;;26.98;19.70;;;;;;;0.63;100.00;99967.16;5052554;28;20054;-40
2023/03/08 00:57:32;;;;;;;27.10;19.88;;;;;;;0.64;100.00;99963.34;5052390;28;20029;-39
2023/03/08 00:59:57;;;;;;;29.17;19.88;;;;;;;0.61;100.00;99958.41;5052580;28;20049;-39
2023/03/08 01:02:22;;;;;;;25.92;19.58;;;;;;;0.62;100.00;99954.63;5052336;28;20067;-38
2023/03/08 01:04:47;;;;;;;26.83;20.95;;;;;;;0.60;100.00;99960.34;5030507;28;20029;-39
2023/03/08 01:07:13;;;;;;;26.52;20.92;;;;;;;0.64;100.00;99960.63;5052381;28;20036;-39
2023/03/08 01:09:38;;;;;;;28.27;21.50;;;;;;;0.65;100.00;99953.28;5034224;28;20350;-39
2023/03/08 01:12:04;;;;;;;28.10;21.55;;;;;;;0.65;100.00;99959.56;5052312;28;20035;-39
2023/03/08 01:14:29;;;;;;;29.88;21.92;;;;;;;0.61;100.00;99953.78;5052197;28;20028;-38
2023/03/08 01:16:54;;;;;;;29.33;22.33;;;;;;;0.65;100.00;99942.38;5052119;28;20024;-39
2023/03/08 01:19:20;;;;;;;27.83;21.02;;;;;;;0.66;100.00;99930.41;5033810;28;20063;-39
2023/03/08 01:21:45;;;;;;;27.65;22.05;;;;;;;0.68;100.00;99934.50;5051999;28;20025;-38
2023/03/08 01:24:10;;;;;;;27.73;21.33;;;;;;;0.69;100.00;99936.16;5052115;28;20473;-39
2023/03/08 01:26:35;;;;;;;28.35;22.08;;;;;;;0.71;100.00;99925.81;5052162;28;20060;-39
2023/03/08 01:29:01;;;;;;;29.15;22.63;;;;;;;0.70;100.00;99918.72;5051989;28;20427;-39
2023/03/08 01:31:29;;;;;;;29.42;23.13;;;;;;;0.69;100.00;99911.66;5033837;28;20116;-38
2023/03/08 01:33:55;;;;;;;28.63;22.25;;;;;;;0.68;100.00;99909.19;5052018;28;20043;-38
2023/03/08 01:36:23;;;;;;;30.10;22.30;;;;;;;0.61;100.00;99899.34;5051961;28;20104;-38
2023/03/08 01:38:50;;;;;;;29.85;23.30;;;;;;;0.66;100.00;99895.84;5033803;28;20044;-38
2023/03/08 01:41:25;;;;;;;29.00;21.80;;;;;;;0.68;100.00;99887.41;5051836;28;20112;-39
2023/03/08 01:43:50;;;;;;;29.60;23.13;;;;;;;0.66;100.00;99884.97;5033957;28;20031;-39
2023/03/08 01:46:22;;;;;;;29.58;23.10;;;;;;;0.65;100.00;99894.22;5033860;28;20115;-39
2023/03/08 01:49:21;;;;;;;28.50;22.45;;;;;;;0.66;100.00;99889.56;5033773;28;20575;-39
2023/03/08 01:51:46;;;;;;;29.77;22.20;;;;;;;0.65;100.00;99882.50;5051706;28;20036;-38
2023/03/08 01:54:16;;;;;;;30.65;23.08;;;;;;;0.64;100.00;99876.25;5051783;28;20021;-39
2023/03/08 01:56:45;;;;;;;32.33;23.33;;;;;;;0.56;100.00;99861.22;5051693;28;20465;-38
2023/03/08 01:59:11;;;;;;;30.40;22.77;;;;;;;0.66;100.00;99876.81;5051611;28;20087;-39
2023/03/08 02:01:37;;;;;;;32.08;24.13;;;;;;;0.64;100.00;99873.53;5051289;28;20053;-38
2023/03/08 02:04:04;;;;;;;31.63;23.52;;;;;;;0.65;100.00;99875.16;5051649;28;20119;-38
2023/03/08 02:06:29;;;;;;;30.23;23.45;;;;;;;0.67;100.00;99875.69;5051490;28;20036;-38
2023/03/08 02:08:55;;;;;;;30.33;23.63;;;;;;;0.70;100.00;99879.81;5047778;28;20045;-38
2023/03/08 02:11:23;;;;;;;31.63;24.17;;;;;;;0.68;100.00;99874.63;5051308;28;20029;-38
2023/03/08 02:13:50;;;;;;;32.83;24.33;;;;;;;0.73;100.00;99876.53;5051488;28;20393;-39
2023/03/08 02:16:16;;;;;;;32.28;23.90;;;;;;;0.72;100.00;99859.41;5051502;28;20029;-38
2023/03/08 02:18:49;;;;;;;35.67;26.08;;;;;;;0.73;100.00;99846.59;5051902;28;20024;-38
2023/03/08 02:21:15;;;;;;;32.45;24.63;;;;;;;0.82;100.00;99849.66;5051922;28;20032;-39
2023/03/08 02:23:40;;;;;;;35.70;25.60;;;;;;;0.76;100.00;99841.44;5051838;28;20036;-39
2023/03/08 02:26:06;;;;;;;35.45;25.13;;;;;;;0.82;100.00;99842.28;5051766;28;20499;-38
2023/03/08 02:28:32;;;;;;;34.70;25.15;;;;;;;0.80;100.00;99833.59;5051816;28;20081;-38
2023/03/08 02:30:58;;;;;;;34.92;26.02;;;;;;;0.78;100.00;99827.56;5051622;28;20029;-38
2023/03/08 02:33:23;;;;;;;33.25;25.23;;;;;;;0.81;100.00;99823.50;5036500;28;20112;-38
2023/03/08 02:35:49;;;;;;;34.45;26.15;;;;;;;0.79;100.00;99829.22;5055292;28;20060;-38
2023/03/08 02:38:17;;;;;;;35.20;26.10;;;;;;;0.78;100.00;99825.66;5055286;28;20025;-39
2023/03/08 02:40:42;;;;;;;36.00;26.30;;;;;;;0.69;100.00;99801.94;5055205;28;20041;-41
2023/03/08 02:43:08;;;;;;;34.05;25.48;;;;;;;0.81;100.00;99826.22;5055174;28;20025;-38
2023/03/08 02:45:33;;;;;;;36.55;26.35;;;;;;;0.76;100.00;99805.25;5054990;28;20067;-38
2023/03/08 02:48:00;;;;;;;35.35;25.45;;;;;;;0.83;100.00;99805.81;5054946;28;20029;-39
2023/03/08 02:50:25;;;;;;;36.08;25.83;;;;;;;0.84;100.00;99806.63;5055033;28;20021;-38
2023/03/08 02:52:51;;;;;;;34.08;25.65;;;;;;;0.85;100.00;99800.91;5054841;28;20082;-39
2023/03/08 02:55:16;;;;;;;36.75;26.42;;;;;;;0.88;100.00;99805.84;5054639;28;20058;-38
2023/03/08 02:57:41;;;;;;;37.00;26.30;;;;;;;0.89;100.00;99803.91;5054872;28;20039;-39
2023/03/08 03:00:07;;;;;;;37.88;27.02;;;;;;;0.88;100.00;99805.84;5054933;28;20033;-38
2023/03/08 03:02:33;;;;;;;37.03;26.58;;;;;;;0.87;100.00;99804.19;5054730;28;20473;-39
2023/03/08 03:04:58;;;;;;;37.50;28.23;;;;;;;0.88;100.00;99810.44;5054734;28;20025;-38
2023/03/08 03:07:24;;;;;;;40.05;28.17;;;;;;;0.89;100.00;99803.91;5052742;28;20024;-39
2023/03/08 03:09:49;;;;;;;38.05;27.45;;;;;;;0.91;100.00;99808.00;5052913;28;20504;-39
2023/03/08 03:12:14;;;;;;;37.15;26.95;;;;;;;0.94;100.00;99809.41;5054751;28;20107;-38
2023/03/08 03:14:40;;;;;;;38.97;28.02;;;;;;;0.95;100.00;99800.13;5054751;28;20104;-38
2023/03/08 03:17:05;;;;;;;37.47;27.13;;;;;;;0.96;100.00;99781.88;5054601;28;20044;-39
2023/03/08 03:19:30;;;;;;;37.95;26.95;;;;;;;0.96;100.00;99779.97;5054380;28;20033;-38
2023/03/08 03:21:55;;;;;;;39.17;28.05;;;;;;;0.98;100.00;99787.88;5036396;28;20527;-39
2023/03/08 03:24:21;;;;;;;36.72;26.30;;;;;;;0.97;100.00;99783.53;5036382;28;20386;-38
2023/03/08 03:26:49;;;;;;;38.20;27.83;;;;;;;0.98;100.00;99772.34;5054472;28;20025;-38
2023/03/08 03:29:14;;;;;;;37.20;27.60;;;;;;;0.98;100.00;99777.81;5054367;28;20110;-38
2023/03/08 03:31:39;;;;;;;35.97;26.67;;;;;;;0.97;100.00;99772.63;5054298;28;20469;-39
2023/03/08 03:34:05;;;;;;;39.95;28.15;;;;;;;0.98;100.00;99766.09;5054247;28;20116;-39
2023/03/08 03:36:30;;;;;;;36.58;26.85;;;;;;;0.99;100.00;99768.53;5054192;28;20021;-39
2023/03/08 03:38:57;;;;;;;39.30;27.20;;;;;;;0.98;100.00;99750.56;5054084;28;20388;-39
2023/03/08 03:41:22;;;;;;;37.08;27.58;;;;;;;0.97;100.00;99743.47;5054161;28;20028;-39
2023/03/08 03:43:48;;;;;;;36.88;26.52;;;;;;;0.92;100.00;99727.16;5053738;28;20031;-39
2023/03/08 03:46:16;;;;;;;36.63;26.67;;;;;;;0.94;100.00;99727.69;5054020;28;20025;-38
2023/03/08 03:48:41;;;;;;;38.95;27.00;;;;;;;1.00;100.00;99726.63;5053898;28;20065;-39
2023/03/08 03:51:14;;;;;;;36.75;26.75;;;;;;;0.98;100.00;99727.97;5053882;28;20413;-39
2023/03/08 03:53:40;;;;;;;37.10;26.35;;;;;;;1.03;100.00;99733.41;5053905;28;20041;-38
2023/03/08 03:56:25;;;;;;;37.08;26.63;;;;;;;1.01;100.00;99728.25;5053878;28;20037;-39
2023/03/08 03:58:50;;;;;;;37.38;26.92;;;;;;;1.04;100.00;99733.13;5053735;28;20818;-38
2023/03/08 04:01:23;;;;;;;37.65;27.23;;;;;;;0.99;100.00;99719.53;5053622;28;20053;-39
2023/03/08 04:03:49;;;;;;;38.67;27.15;;;;;;;1.05;100.00;99718.44;5053914;28;20158;-38
2023/03/08 04:06:20;;;;;;;38.05;26.77;;;;;;;1.03;100.00;99717.91;5053560;28;20025;-39
2023/03/08 04:08:46;;;;;;;38.47;26.95;;;;;;;1.08;100.00;99728.78;5049641;28;20033;-39
2023/03/08 04:11:18;;;;;;;40.33;29.00;;;;;;;1.01;100.00;99703.75;5035633;28;20033;-38
2023/03/08 04:13:44;;;;;;;38.28;28.08;;;;;;;1.09;100.00;99711.38;5053429;28;20037;-39
2023/03/08 04:16:20;;;;;;;37.63;27.58;;;;;;;1.04;100.00;99705.09;5053582;28;20032;-38
2023/03/08 04:18:46;;;;;;;41.50;28.23;;;;;;;1.03;100.00;99700.72;5053408;28;20032;-38
2023/03/08 04:21:12;;;;;;;38.78;27.52;;;;;;;1.06;100.00;99698.28;5053382;28;20413;-39
2023/03/08 04:23:37;;;;;;;39.05;27.45;;;;;;;1.05;100.00;99696.66;5053305;28;20037;-38
2023/03/08 04:26:04;;;;;;;40.00;28.55;;;;;;;1.04;100.00;99688.75;5053153;28;20087;-39
2023/03/08 04:28:30;;;;;;;38.15;26.80;;;;;;;1.03;100.00;99690.69;5053192;28;20112;-39
2023/03/08 04:30:56;;;;;;;38.28;26.50;;;;;;;1.03;100.00;99687.94;5053060;28;20485;-39
2023/03/08 04:33:22;;;;;;;38.15;26.45;;;;;;;1.02;100.00;99683.59;5052723;28;20024;-39
2023/03/08 04:35:48;;;;;;;38.35;26.70;;;;;;;1.01;100.00;99678.38;5052854;28;20028;-38
2023/03/08 04:38:13;;;;;;;35.72;26.58;;;;;;;1.04;100.00;99666.97;5052946;28;20029;-39
2023/03/08 04:43:22;;;;;;;36.40;26.33;;;;;;;1.00;100.00;99652.25;5053198;28;20465;-38
2023/03/08 04:45:48;;;;;;;34.33;24.77;;;;;;;1.06;100.00;99659.34;5052880;28;20056;-39
2023/03/08 04:48:13;;;;;;;35.28;25.05;;;;;;;1.05;100.00;99660.44;5052401;28;20386;-40
2023/03/08 04:50:38;;;;;;;35.83;24.98;;;;;;;1.05;100.00;99652.25;5052599;28;20032;-39
2023/03/08 04:53:04;;;;;;;34.83;24.77;;;;;;;1.08;100.00;99655.25;5052446;28;20817;-39
2023/03/08 04:55:29;;;;;;;34.88;24.85;;;;;;;1.06;100.00;99646.53;5051941;28;20060;-38
2023/03/08 04:57:54;;;;;;;36.10;25.30;;;;;;;1.05;100.00;99641.38;5052564;28;20025;-38
2023/03/08 05:00:20;;;;;;;34.60;24.38;;;;;;;1.04;100.00;99643.25;5052534;28;20111;-38
2023/03/08 05:02:45;;;;;;;33.90;24.85;;;;;;;0.90;100.00;99607.56;5051800;28;20125;-39
2023/03/08 05:05:10;;;;;;;32.63;24.52;;;;;;;1.07;100.00;99625.56;5051601;28;20491;-38
2023/03/08 05:07:36;;;;;;;34.15;24.90;;;;;;;1.11;100.00;99612.22;5048772;28;20028;-39
2023/03/08 05:10:01;;;;;;;34.88;24.70;;;;;;;1.11;100.00;99609.50;5050495;28;20049;-39
2023/03/08 05:12:26;;;;;;;34.75;24.58;;;;;;;1.13;100.00;99610.03;5051589;28;20493;-38
2023/03/08 05:14:52;;;;;;;33.92;24.50;;;;;;;1.11;100.00;99609.50;5051477;28;20025;-38
2023/03/08 05:17:17;;;;;;;33.30;24.67;;;;;;;1.15;100.00;99605.94;5051562;28;20613;-38
2023/03/08 05:19:42;;;;;;;36.13;24.60;;;;;;;1.07;100.00;99587.44;5051329;28;20389;-38
2023/03/08 05:22:08;;;;;;;33.92;23.98;;;;;;;1.15;100.00;99605.13;5051324;28;20024;-39
2023/03/08 05:24:33;;;;;;;34.30;24.63;;;;;;;1.16;100.00;99593.13;5051220;28;20058;-38
2023/03/08 05:26:58;;;;;;;34.17;23.60;;;;;;;1.16;100.00;99591.25;5051012;28;20028;-38
2023/03/08 05:29:23;;;;;;;34.22;24.50;;;;;;;1.15;100.00;99578.72;5051085;28;20422;-38
2023/03/08 05:31:49;;;;;;;34.10;24.10;;;;;;;1.18;100.00;99582.78;5050962;28;20108;-38
2023/03/08 05:34:14;;;;;;;34.85;25.52;;;;;;;1.16;100.00;99574.06;5051036;28;20028;-38
2023/03/08 05:36:41;;;;;;;34.72;24.02;;;;;;;1.17;100.00;99573.81;5051015;28;20032;-37
2023/03/08 05:39:07;;;;;;;34.67;24.85;;;;;;;1.17;100.00;99572.97;5050787;28;20025;-38
2023/03/08 05:41:32;;;;;;;35.60;24.48;;;;;;;1.17;100.00;99567.53;5051069;28;20075;-38
2023/03/08 05:43:59;;;;;;;35.35;24.13;;;;;;;1.08;100.00;99542.78;5050932;28;20029;-38
2023/03/08 05:46:25;;;;;;;33.45;23.05;;;;;;;1.17;100.00;99546.56;5050826;28;20035;-38
2023/03/08 05:48:50;;;;;;;34.25;24.35;;;;;;;1.18;100.00;99548.19;5050913;28;20021;-38
2023/03/08 05:51:17;;;;;;;34.97;24.52;;;;;;;1.20;100.00;99546.00;5050676;28;20032;-38
2023/03/08 05:53:43;;;;;;;34.30;23.95;;;;;;;1.17;100.00;99523.94;5051031;28;20032;-38
2023/03/08 05:56:14;;;;;;;33.40;23.75;;;;;;;1.22;100.00;99532.91;5050675;28;20492;-38
2023/03/08 05:58:40;;;;;;;34.13;23.98;;;;;;;1.21;100.00;99525.03;5050270;28;20029;-38
2023/03/08 06:01:17;;;;;;;32.42;23.38;;;;;;;1.17;100.00;99507.59;5013956;28;1042477;-38
2023/03/08 06:03:44;;;;;;;33.03;23.15;;;;;;;1.20;100.00;99517.94;5051353;28;20037;-37
2023/03/08 06:06:09;;;;;;;34.13;23.38;;;;;;;1.21;100.00;99504.03;5050530;28;20033;-38
2023/03/08 06:08:35;;;;;;;34.55;23.85;;;;;;;1.22;100.00;99513.03;5046198;28;20086;-38
2023/03/08 06:11:00;;;;;;;32.67;22.95;;;;;;;1.20;100.00;99510.59;5051315;28;20493;-38
2023/03/08 06:13:25;;;;;;;34.03;23.92;;;;;;;1.22;100.00;99507.59;5050996;28;20096;-38
2023/03/08 06:15:55;;;;;;;33.17;22.95;;;;;;;1.22;100.00;99504.88;5051502;28;20033;-38
2023/03/08 06:18:21;;;;;;;32.25;23.27;;;;;;;1.19;100.00;99505.41;5051380;28;20022;-38
2023/03/08 06:20:58;;;;;;;31.60;22.33;;;;;;;1.15;100.00;99494.25;5051397;28;20228;-38
2023/03/08 06:23:25;;;;;;;32.15;22.63;;;;;;;1.18;100.00;99495.59;5051260;28;20059;-38
2023/03/08 06:25:50;;;;;;;31.77;23.15;;;;;;;1.16;100.00;99503.25;5051598;28;20103;-38
2023/03/08 06:28:16;;;;;;;32.25;21.80;;;;;;;1.18;100.00;99503.78;5033511;28;20097;-38
2023/03/08 06:30:41;;;;;;;30.45;22.05;;;;;;;1.13;100.00;99493.72;5051567;28;20024;-38
2023/03/08 06:33:07;;;;;;;29.35;20.35;;;;;;;1.16;100.00;99503.25;5051154;28;20044;-38
2023/03/08 06:35:32;;;;;;;30.45;21.33;;;;;;;1.14;100.00;99499.97;5051778;28;20078;-38
2023/03/08 06:37:57;;;;;;;29.10;20.35;;;;;;;1.15;100.00;99494.25;5051099;28;20036;-38
2023/03/08 06:40:23;;;;;;;27.20;19.88;;;;;;;1.14;100.00;99495.34;5051708;28;20028;-38
2023/03/08 06:42:48;;;;;;;29.15;19.75;;;;;;;1.13;100.00;99496.44;5051825;28;20112;-37
2023/03/08 06:45:13;;;;;;;27.35;19.85;;;;;;;1.10;100.00;99491.53;5051738;28;20021;-38
2023/03/08 06:47:39;;;;;;;27.48;18.83;;;;;;;1.12;100.00;99488.56;5051814;28;20032;-38
2023/03/08 06:50:05;;;;;;;27.52;18.83;;;;;;;1.11;100.00;99485.00;5062443;28;20112;-38
2023/03/08 06:52:36;;;;;;;28.48;19.17;;;;;;;1.13;100.00;99490.19;5071774;28;20032;-38
2023/03/08 06:55:02;;;;;;;25.67;18.15;;;;;;;1.06;100.00;99483.09;5071941;28;20032;-38
2023/03/08 06:57:28;;;;;;;25.23;17.35;;;;;;;1.11;100.00;99486.91;5071766;28;20107;-38
2023/03/08 06:59:53;;;;;;;29.95;17.48;;;;;;;1.11;100.00;99492.38;5047239;28;20120;-38
2023/03/08 07:02:18;;;;;;;24.33;16.92;;;;;;;1.11;100.00;99489.66;5051669;28;20489;-38
2023/03/08 07:04:44;;;;;;;23.80;16.42;;;;;;;1.08;100.00;99485.56;5051737;28;20437;-39
2023/03/08 07:07:09;;;;;;;24.25;16.33;;;;;;;1.08;100.00;99494.53;5051147;28;20029;-41
2023/03/08 07:09:34;;;;;;;24.33;16.90;;;;;;;1.06;100.00;99490.47;5048425;28;20029;-39
2023/03/08 07:12:00;;;;;;;24.08;16.42;;;;;;;1.05;100.00;99495.09;5051662;28;20397;-39
2023/03/08 07:14:25;;;;;;;24.85;16.73;;;;;;;1.02;100.00;99484.75;5051612;28;20492;-39
2023/03/08 07:16:50;;;;;;;25.70;17.05;;;;;;;1.06;100.00;99487.75;5051430;28;20037;-39
2023/03/08 07:19:15;;;;;;;23.95;16.08;;;;;;;1.05;100.00;99489.63;5054002;28;20381;-39
2023/03/08 07:21:43;;;;;;;23.67;16.08;;;;;;;1.05;100.00;99478.75;5054893;28;20112;-39
2023/03/08 07:24:09;;;;;;;23.35;16.13;;;;;;;1.04;100.00;99474.38;5055216;28;20172;-39
2023/03/08 07:26:34;;;;;;;23.63;16.73;;;;;;;0.87;100.00;99452.09;5055131;28;20029;-40
2023/03/08 07:28:59;;;;;;;24.13;16.35;;;;;;;1.05;100.00;99467.84;5054969;28;20028;-40
2023/03/08 07:31:27;;;;;;;24.90;17.25;;;;;;;1.07;100.00;99462.16;5054727;28;20021;-37
2023/03/08 07:33:53;;;;;;;22.42;15.27;;;;;;;1.01;100.00;99458.63;5055283;28;20033;-38
2023/03/08 07:36:18;;;;;;;22.48;15.45;;;;;;;1.04;100.00;99459.97;5054864;28;20523;-39
2023/03/08 07:38:45;;;;;;;22.58;15.43;;;;;;;1.04;100.00;99457.25;5036853;28;20032;-39
2023/03/08 07:41:11;;;;;;;23.67;15.95;;;;;;;1.05;100.00;99453.44;5036684;28;20393;-39
2023/03/08 07:43:37;;;;;;;21.58;15.43;;;;;;;1.10;100.00;99453.41;5054762;28;20029;-39
2023/03/08 07:46:03;;;;;;;22.55;15.27;;;;;;;1.09;100.00;99457.22;5056310;28;20389;-39
2023/03/08 07:48:30;;;;;;;22.85;15.20;;;;;;;1.08;100.00;99448.25;5036576;28;20029;-39
2023/03/08 07:51:08;;;;;;;21.30;15.43;;;;;;;1.18;100.00;99446.56;5054314;28;20052;-39
2023/03/08 07:53:34;;;;;;;22.20;15.32;;;;;;;1.38;100.00;99440.22;5054566;28;20024;-39
2023/03/08 07:55:59;;;;;;;23.80;16.75;;;;;;;1.56;100.00;99439.59;5067356;28;20036;-38
2023/03/08 07:58:26;;;;;;;24.88;15.90;;;;;;;1.71;100.00;99438.69;5073999;28;20131;-39
2023/03/08 08:00:51;;;;;;;22.08;15.65;;;;;;;1.83;100.00;99438.38;5055541;28;20095;-39
2023/03/08 08:03:17;;;;;;;23.13;15.95;;;;;;;1.93;100.00;99433.94;5070189;28;20539;-38
2023/03/08 08:05:42;;;;;;;23.45;15.77;;;;;;;2.01;100.00;99433.34;5071251;28;20027;-39
2023/03/08 08:08:09;;;;;;;23.33;16.33;;;;;;;2.09;100.00;99423.72;5036516;28;20504;-39
2023/03/08 08:10:34;;;;;;;24.42;15.82;;;;;;;2.03;100.00;99420.22;5054165;28;20033;-39
2023/03/08 08:13:00;;;;;;;23.58;15.68;;;;;;;2.04;99.57;99424.56;5055047;28;20112;-38
2023/03/08 08:15:29;;;;;;;22.20;15.23;;;;;;;2.02;99.93;99424.84;5072844;28;20419;-38
2023/03/08 08:17:58;;;;;;;22.17;15.40;;;;;;;2.03;99.66;99428.41;5072296;28;20035;-41
2023/03/08 08:20:25;;;;;;;22.08;15.07;;;;;;;1.99;98.81;99413.69;5072457;28;20077;-40
2023/03/08 08:22:52;;;;;;;20.42;13.85;;;;;;;1.95;99.45;99410.72;5072717;28;20086;-39
2023/03/08 08:25:18;;;;;;;21.50;13.95;;;;;;;1.98;99.10;99406.63;5057178;28;20040;-39
2023/03/08 08:27:44;;;;;;;20.67;14.25;;;;;;;1.97;98.07;99408.53;5035065;28;20472;-39
2023/03/08 08:30:13;;;;;;;21.83;14.65;;;;;;;1.97;98.46;99400.34;5035151;28;20037;-38
2023/03/08 08:32:39;;;;;;;21.15;14.80;;;;;;;1.95;98.04;99401.72;5053313;28;20036;-39
2023/03/08 08:35:05;;;;;;;21.65;14.48;;;;;;;1.77;97.95;99371.31;5068147;28;20037;-39
2023/03/08 08:37:32;;;;;;;21.00;14.38;;;;;;;1.98;98.19;99392.97;5070993;28;20391;-40
2023/03/08 08:39:57;;;;;;;22.58;14.90;;;;;;;2.00;98.05;99394.31;5058095;28;20045;-39
2023/03/08 08:42:23;;;;;;;21.25;14.07;;;;;;;1.98;97.30;99380.16;5052575;28;20033;-40
2023/03/08 08:44:48;;;;;;;20.90;14.13;;;;;;;1.90;97.75;99358.13;5065191;28;20385;-40
2023/03/08 08:47:14;;;;;;;21.92;14.70;;;;;;;2.02;97.25;99372.22;5072541;28;20372;-41
2023/03/08 08:49:40;;;;;;;21.23;14.30;;;;;;;2.04;96.80;99378.19;5072147;28;20060;-40
2023/03/08 08:52:06;;;;;;;21.40;14.60;;;;;;;2.03;96.72;99373.84;5072671;28;20029;-39
2023/03/08 08:54:32;;;;;;;19.85;13.80;;;;;;;2.09;96.54;99380.06;5054992;28;20043;-41
2023/03/08 08:56:58;;;;;;;19.73;13.27;;;;;;;2.08;97.14;99368.34;5054105;28;20035;-39
2023/03/08 08:59:24;;;;;;;20.60;13.27;;;;;;;2.15;96.32;99376.22;5054594;28;20040;-40
2023/03/08 09:01:50;;;;;;;19.80;12.27;;;;;;;2.11;95.30;99388.78;5071032;28;20501;-41
2023/03/08 09:04:15;;;;;;;18.60;11.88;;;;;;;2.08;96.14;99382.00;5072201;28;20029;-41
2023/03/08 09:06:41;;;;;;;19.98;12.65;;;;;;;2.07;96.27;99385.81;5072541;28;20101;-39
2023/03/08 09:09:07;;;;;;;19.65;12.32;;;;;;;2.09;95.82;99388.25;5066887;28;20048;-38
2023/03/08 09:11:33;;;;;;;19.85;12.85;;;;;;;2.15;96.04;99392.56;5071963;28;20060;-41
2023/03/08 09:14:01;;;;;;;20.05;13.27;;;;;;;2.16;95.55;99391.47;5068430;28;20102;-39
2023/03/08 09:16:33;;;;;;;22.50;13.52;;;;;;;2.15;95.33;99393.38;5052905;28;20155;-39
2023/03/08 09:19:01;;;;;;;19.92;13.93;;;;;;;2.02;95.05;99377.69;5056161;28;20040;-40
2023/03/08 09:21:28;;;;;;;19.48;13.60;;;;;;;2.00;95.38;99369.75;5071777;28;20484;-39
2023/03/08 09:23:54;;;;;;;19.73;13.77;;;;;;;2.03;96.75;99360.22;5052827;28;20097;-39
2023/03/08 09:26:19;;;;;;;21.25;14.40;;;;;;;2.09;96.57;99347.31;5070804;28;20036;-39
2023/03/08 09:28:45;;;;;;;20.90;14.57;;;;;;;2.10;96.75;99336.16;5055555;28;20044;-40
2023/03/08 09:31:15;;;;;;;21.95;15.15;;;;;;;2.16;96.12;99328.72;5033318;28;20029;-40
2023/03/08 09:33:43;;;;;;;22.13;15.15;;;;;;;2.20;96.18;99329.75;5033853;28;20029;-39
2023/03/08 09:36:08;;;;;;;22.05;15.30;;;;;;;2.21;95.48;99325.94;5064210;28;20456;-38
2023/03/08 09:38:34;;;;;;;22.67;15.40;;;;;;;2.23;95.71;99320.19;5069911;28;20028;-39
2023/03/08 09:41:20;;;;;;;22.55;15.82;;;;;;;2.29;95.43;99322.56;5070784;28;20029;-41
2023/03/08 09:44:04;;;;;;;22.38;15.63;;;;;;;2.40;94.87;99306.94;5071183;28;20550;-39
2023/03/08 09:46:37;;;;;;;25.05;16.80;;;;;;;2.44;95.41;99307.97;5071024;28;20489;-39
2023/03/08 09:49:08;;;;;;;25.83;17.20;;;;;;;2.37;94.36;99298.47;5070846;28;20025;-39
2023/03/08 09:51:37;;;;;;;24.13;17.02;;;;;;;2.43;94.39;99305.53;5070825;28;20028;-39
2023/03/08 09:54:12;;;;;;;26.45;18.13;;;;;;;2.44;95.39;99299.78;5071019;28;20071;-40
2023/03/08 09:56:52;;;;;;;25.77;18.13;;;;;;;2.47;94.79;99292.91;5070871;28;20060;-40
2023/03/08 09:59:27;;;;;;;26.95;18.45;;;;;;;2.48;94.95;99303.56;5052310;28;20033;-41
2023/03/08 10:02:23;;;;;;;27.70;18.65;;;;;;;2.59;94.80;99306.97;5057809;28;20045;-39
2023/03/08 10:04:51;;;;;;;28.10;19.30;;;;;;;2.63;94.09;99293.56;5047053;28;20040;-40
2023/03/08 10:07:44;;;;;;;29.40;20.63;;;;;;;2.67;94.47;99278.22;5050901;28;20118;-39
2023/03/08 10:10:31;;;;;;;28.77;20.67;;;;;;;2.70;94.46;99272.16;5050976;28;20044;-40
2023/03/08 10:13:16;;;;;;;29.38;20.45;;;;;;;2.79;93.61;99281.34;5068523;28;20044;-39
2023/03/08 10:15:47;;;;;;;28.05;19.88;;;;;;;2.86;93.83;99272.00;5070914;28;20047;-40
2023/03/08 10:18:29;;;;;;;29.55;20.02;;;;;;;2.92;93.63;99285.28;5070840;28;20060;-41
2023/03/08 10:20:58;;;;;;;28.63;19.77;;;;;;;3.05;93.82;99294.69;5071372;28;20036;-38
2023/03/08 10:23:26;;;;;;;31.38;20.88;;;;;;;3.07;92.63;99292.44;5071113;28;20059;-40
2023/03/08 10:25:52;;;;;;;31.25;20.83;;;;;;;3.16;93.08;99294.53;5061285;28;20154;-40
2023/03/08 10:28:23;;;;;;;29.00;20.48;;;;;;;3.21;92.55;99306.19;5058980;28;20484;-39
2023/03/08 10:30:55;;;;;;;27.33;18.98;;;;;;;3.25;91.99;99299.03;5058806;28;20381;-39
2023/03/08 10:33:23;;;;;;;28.60;19.23;;;;;;;3.28;90.60;99284.78;5058718;28;20029;-40
2023/03/08 10:35:56;;;;;;;26.98;18.65;;;;;;;3.25;91.57;99262.72;5058937;28;20037;-45
2023/03/08 10:38:23;;;;;;;26.27;18.88;;;;;;;3.24;91.18;99272.81;5049394;28;20469;-40
2023/03/08 10:40:57;;;;;;;24.75;17.85;;;;;;;3.32;91.23;99279.53;5032846;28;20477;-39
2023/03/08 10:43:33;;;;;;;24.55;17.55;;;;;;;3.41;90.55;99268.72;5050595;28;20040;-40
2023/03/08 10:46:11;;;;;;;25.25;17.48;;;;;;;3.40;90.24;99273.41;5050553;28;20029;-41
2023/03/08 10:48:36;;;;;;;23.67;16.63;;;;;;;3.39;89.87;99260.84;5050607;28;20033;-39
2023/03/08 10:51:05;;;;;;;24.15;17.70;;;;;;;3.39;90.83;99260.03;5050586;28;20032;-39
2023/03/08 10:53:31;;;;;;;23.27;17.50;;;;;;;3.37;90.21;99248.59;5052290;28;20033;-38
2023/03/08 10:55:59;;;;;;;24.20;17.90;;;;;;;3.39;89.79;99247.16;5036215;28;20033;-40
2023/03/08 10:58:37;;;;;;;22.98;16.15;;;;;;;3.51;88.63;99254.09;5058763;28;20032;-39
2023/03/08 11:01:06;;;;;;;23.20;16.70;;;;;;;3.58;88.43;99247.16;5061961;28;20460;-39
2023/03/08 11:03:32;;;;;;;24.08;17.30;;;;;;;3.66;89.07;99231.16;5063696;28;20045;-39
2023/03/08 11:06:01;;;;;;;24.77;16.98;;;;;;;3.64;87.79;99233.38;5060285;28;20086;-39
2023/03/08 11:08:36;;;;;;;23.02;16.52;;;;;;;3.93;87.86;99273.38;5039146;28;20033;-39
2023/03/08 11:11:09;;;;;;;23.05;16.20;;;;;;;4.05;86.98;99269.03;5074305;28;20033;-40
2023/03/08 11:13:46;;;;;;;21.67;15.88;;;;;;;4.12;86.01;99268.66;5074325;28;20110;-40
2023/03/08 11:16:48;;;;;;;21.77;15.77;;;;;;;4.18;86.53;99272.91;5073006;28;20121;-39
2023/03/08 11:19:52;;;;;;;22.30;15.43;;;;;;;4.20;86.07;99257.00;5073921;28;20031;-40
2023/03/08 11:22:33;;;;;;;22.05;16.00;;;;;;;4.19;85.06;99268.25;5073731;28;20032;-39
2023/03/08 11:25:07;;;;;;;22.95;15.73;;;;;;;4.17;84.18;99265.00;5073775;28;20107;-40